Time;durP1;ratioP1;P1;durP2;ratioP2;P2;SDS_P1;SDS_P2;PMS_P1;PMS_P2;Temp;Humidity;BMP_temperature;BMP_pressure;BME280_temperature;BME280_humidity;BME280_pressure;Samples;Min_cycle;Max_cycle;Signal;HPM_P1;HPM_P2
2023/03/25 00:02:07;;;;;;;20.90;4.63;;;9.40;99.90;;;;;;5042517;28;20036;-56
2023/03/25 00:04:34;;;;;;;21.98;4.50;;;;;;;;;;5038656;28;20041;-56
2023/03/25 00:07:00;;;;;;;16.80;5.60;;;9.60;99.90;;;;;;5039152;28;20052;-56
2023/03/25 00:09:26;;;;;;;23.38;5.18;;;9.60;99.90;;;;;;5037733;28;20110;-55
2023/03/25 00:11:52;;;;;;;20.50;4.45;;;9.60;99.90;;;;;;5037788;28;20483;-55
2023/03/25 00:14:18;;;;;;;19.70;5.20;;;9.60;99.90;;;;;;5041208;28;20037;-56
2023/03/25 00:16:47;;;;;;;19.48;4.28;;;;;;;;;;5044002;28;20074;-57
2023/03/25 00:19:17;;;;;;;22.45;4.43;;;9.80;99.90;;;;;;5037246;28;20118;-59
2023/03/25 00:21:43;;;;;;;19.75;4.05;;;;;;;;;;5037956;28;20131;-53
2023/03/25 00:24:16;;;;;;;14.93;3.95;;;9.00;99.90;;;;;;5041478;28;20068;-57
2023/03/25 00:26:42;;;;;;;19.77;4.70;;;;;;;;;;5043144;28;20502;-55
2023/03/25 00:29:09;;;;;;;16.60;4.93;;;;;;;;;;5038664;28;20052;-57
2023/03/25 00:31:34;;;;;;;22.52;5.10;;;8.70;99.90;;;;;;5039375;28;20041;-57
2023/03/25 00:34:00;;;;;;;16.05;4.53;;;8.70;99.90;;;;;;5042762;28;20051;-53
2023/03/25 00:36:26;;;;;;;16.73;3.22;;;8.50;99.90;;;;;;5040846;28;20025;-56
2023/03/25 00:38:52;;;;;;;23.77;5.55;;;;;;;;;;5040120;28;20136;-57
2023/03/25 00:41:24;;;;;;;27.77;5.15;;;;;;;;;;5041520;28;20029;-58
2023/03/25 00:43:57;;;;;;;25.35;6.25;;;;;;;;;;5041363;28;20064;-54
2023/03/25 00:46:25;;;;;;;29.50;6.03;;;;;;;;;;5036265;28;20034;-56
2023/03/25 00:48:51;;;;;;;28.83;5.88;;;8.50;1.00;;;;;;5041089;28;20106;-53
2023/03/25 00:51:20;;;;;;;22.50;5.55;;;;;;;;;;5039414;28;20499;-54
2023/03/25 00:53:47;;;;;;;30.90;6.60;;;;;;;;;;5037737;28;20095;-55
2023/03/25 00:56:13;;;;;;;28.13;6.43;;;;;;;;;;5040243;28;20549;-56
2023/03/25 00:58:40;;;;;;;20.05;4.53;;;;;;;;;;5041093;28;20070;-53
2023/03/25 01:01:15;;;;;;;28.58;4.05;;;8.40;1.00;;;;;;5022059;28;20487;-55
2023/03/25 01:03:44;;;;;;;28.73;6.43;;;;;;;;;;5036193;28;20462;-53
2023/03/25 01:06:14;;;;;;;30.98;6.32;;;;;;;;;;5037222;28;20172;-57
2023/03/25 01:08:41;;;;;;;25.25;5.45;;;;;;;;;;5037674;28;20033;-54
2023/03/25 01:11:15;;;;;;;31.63;6.32;;;;;;;;;;5036105;28;20037;-54
2023/03/25 01:13:41;;;;;;;24.63;5.53;;;8.50;1.00;;;;;;5041772;28;20059;-54
2023/03/25 01:16:07;;;;;;;22.23;5.07;;;8.50;1.00;;;;;;5036188;28;20491;-53
2023/03/25 01:18:36;;;;;;;32.28;7.10;;;;;;;;;;5043539;28;20060;-58
2023/03/25 01:21:03;;;;;;;32.58;6.07;;;;;;;;;;5034738;28;20041;-56
2023/03/25 01:23:29;;;;;;;16.80;3.97;;;;;;;;;;5035621;28;20044;-53
2023/03/25 01:25:55;;;;;;;26.05;5.72;;;;;;;;;;5041259;28;20049;-56
2023/03/25 01:28:20;;;;;;;31.60;6.38;;;8.50;1.00;;;;;;5041589;28;20607;-55
2023/03/25 01:30:46;;;;;;;26.00;5.40;;;8.60;99.90;;;;;;5039999;28;20037;-55
2023/03/25 01:33:12;;;;;;;25.42;5.30;;;;;;;;;;5035237;28;20034;-53
2023/03/25 01:35:37;;;;;;;33.72;8.20;;;8.60;1.00;;;;;;5035060;28;20063;-55
2023/03/25 01:38:03;;;;;;;23.75;6.00;;;;;;;;;;5024092;28;20042;-55
2023/03/25 01:40:29;;;;;;;23.80;5.03;;;;;;;;;;5036083;28;20037;-56
2023/03/25 01:42:56;;;;;;;24.73;5.97;;;;;;;;;;5041569;28;20462;-54
2023/03/25 01:45:24;;;;;;;19.48;4.15;;;;;;;;;;5036787;28;20132;-52
2023/03/25 01:47:53;;;;;;;20.27;4.60;;;;;;;;;;5038491;28;20037;-56
2023/03/25 01:50:20;;;;;;;21.60;5.85;;;8.70;99.90;;;;;;5040490;28;20075;-55
2023/03/25 01:52:49;;;;;;;24.83;5.38;;;8.80;99.90;;;;;;5045684;28;20383;-55
2023/03/25 01:55:16;;;;;;;25.02;5.97;;;8.80;99.90;;;;;;5043114;28;20052;-56
2023/03/25 01:57:45;;;;;;;23.35;5.95;;;;;;;;;;5043560;28;20098;-57
2023/03/25 02:00:12;;;;;;;34.15;7.38;;;;;;;;;;5042891;28;20095;-54
2023/03/25 02:02:39;;;;;;;24.35;6.50;;;;;;;;;;5044664;28;20041;-54
2023/03/25 02:05:28;;;;;;;20.40;5.20;;;;;;;;;;5043646;28;20435;-55
2023/03/25 02:07:56;;;;;;;23.83;6.07;;;8.80;99.90;;;;;;5039346;28;20136;-55
2023/03/25 02:10:23;;;;;;;25.88;5.88;;;8.70;99.90;;;;;;5039666;28;20029;-56
2023/03/25 02:12:49;;;;;;;28.75;6.13;;;;;;;;;;5040274;28;20437;-55
2023/03/25 02:15:17;;;;;;;28.42;6.72;;;8.60;99.90;;;;;;5042692;28;20407;-56
2023/03/25 02:18:02;;;;;;;27.08;6.53;;;;;;;;;;5042097;28;20573;-57
2023/03/25 02:20:47;;;;;;;22.13;5.90;;;;;;;;;;5035524;28;20045;-56
2023/03/25 02:23:31;;;;;;;29.77;6.93;;;8.70;99.90;;;;;;5045502;28;20605;-56
2023/03/25 02:26:13;;;;;;;27.23;6.60;;;;;;;;;;5041184;28;20045;-57
2023/03/25 02:29:06;;;;;;;19.83;5.03;;;9.10;99.90;;;;;;5041743;28;20036;-57
2023/03/25 02:31:40;;;;;;;19.42;4.97;;;8.80;99.90;;;;;;5024587;28;20487;-57
2023/03/25 02:34:12;;;;;;;22.88;5.55;;;;;;;;;;5044268;28;20040;-56
2023/03/25 02:37:00;;;;;;;23.60;5.47;;;;;;;;;;5039036;28;20041;-54
2023/03/25 02:39:45;;;;;;;22.35;6.28;;;8.80;99.90;;;;;;5038807;28;20102;-54
2023/03/25 02:42:14;;;;;;;29.10;5.45;;;;;;;;;;5041508;28;20052;-57
2023/03/25 02:44:45;;;;;;;26.67;6.68;;;8.80;99.90;;;;;;5045633;28;20056;-56
2023/03/25 02:47:15;;;;;;;19.95;4.90;;;;;;;;;;5041421;28;20052;-57
2023/03/25 02:49:59;;;;;;;25.38;4.80;;;8.90;99.90;;;;;;5043406;28;20124;-58
2023/03/25 02:52:36;;;;;;;24.08;5.22;;;;;;;;;;5041481;28;20465;-57
2023/03/25 02:55:09;;;;;;;28.40;6.18;;;9.50;99.90;;;;;;5041250;28;20502;-55
2023/03/25 02:57:37;;;;;;;24.98;5.05;;;;;;;;;;5044090;28;20204;-57
2023/03/25 03:00:09;;;;;;;18.98;6.07;;;9.10;99.90;;;;;;5045359;28;20144;-56
2023/03/25 03:02:38;;;;;;;18.98;4.43;;;;;;;;;;5041715;28;20248;-57
2023/03/25 03:05:25;;;;;;;29.88;5.55;;;9.00;99.90;;;;;;5029098;28;20044;-56
2023/03/25 03:08:00;;;;;;;26.38;6.75;;;9.20;99.90;;;;;;5039302;28;20037;-55
2023/03/25 03:10:35;;;;;;;24.27;6.07;;;9.70;99.90;;;;;;5040928;28;20064;-56
2023/03/25 03:13:04;;;;;;;27.35;5.75;;;;;;;;;;5057838;28;20063;-56
2023/03/25 03:15:40;;;;;;;24.48;4.95;;;;;;;;;;5039724;28;20507;-56
2023/03/25 03:18:14;;;;;;;26.67;6.30;;;;;;;;;;5037720;28;20036;-57
2023/03/25 03:20:43;;;;;;;22.98;4.78;;;;;;;;;;5042674;28;20110;-56
2023/03/25 03:23:17;;;;;;;27.20;5.13;;;;;;;;;;5037959;28;20033;-52
2023/03/25 03:25:46;;;;;;;25.65;6.32;;;;;;;;;;5039252;28;20445;-55
2023/03/25 03:28:15;;;;;;;22.42;5.80;;;9.60;99.90;;;;;;5038168;28;20124;-56
2023/03/25 03:30:47;;;;;;;22.77;6.50;;;;;;;;;;5041011;28;20080;-53
2023/03/25 03:33:39;;;;;;;29.33;5.97;;;9.10;99.90;;;;;;5042651;28;20410;-56
2023/03/25 03:36:12;;;;;;;21.23;5.05;;;;;;;;;;5038678;28;20044;-55
2023/03/25 03:38:42;;;;;;;23.00;5.07;;;;;;;;;;5043389;28;20041;-56
2023/03/25 03:41:12;;;;;;;19.35;5.25;;;8.90;99.90;;;;;;5040736;28;20131;-53
2023/03/25 03:43:57;;;;;;;29.08;5.85;;;9.10;84.90;;;;;;5038128;28;20064;-58
2023/03/25 03:46:28;;;;;;;15.82;5.30;;;;;;;;;;5041155;28;20045;-56
2023/03/25 03:48:57;;;;;;;20.13;3.72;;;;;;;;;;5041115;28;20041;-54
2023/03/25 03:51:24;;;;;;;18.50;5.18;;;;;;;;;;5034859;28;20041;-53
2023/03/25 03:54:00;;;;;;;24.45;5.65;;;9.50;99.90;;;;;;5040934;28;20064;-55
2023/03/25 03:56:46;;;;;;;20.27;5.03;;;;;;;;;;5043528;28;20512;-55
2023/03/25 03:59:51;;;;;;;17.27;5.13;;;9.40;99.90;;;;;;5039545;28;20059;-54
2023/03/25 04:02:31;;;;;;;24.35;5.82;;;8.90;63.70;;;;;;5038871;28;20455;-55
2023/03/25 04:04:59;;;;;;;23.85;6.63;;;;;;;;;;5037147;28;20056;-54
2023/03/25 04:07:57;;;;;;;28.55;5.82;;;;;;;;;;5040278;28;20087;-55
2023/03/25 04:10:44;;;;;;;23.15;4.75;;;;;;;;;;5034700;28;20099;-56
2023/03/25 04:13:13;;;;;;;21.20;5.00;;;9.20;1.00;;;;;;5041330;28;20117;-56
2023/03/25 04:15:39;;;;;;;19.00;5.15;;;;;;;;;;5036834;28;20049;-56
2023/03/25 04:18:05;;;;;;;22.83;5.80;;;;;;;;;;5041288;28;20122;-58
2023/03/25 04:20:33;;;;;;;17.42;5.72;;;9.40;1.00;;;;;;5035988;28;20040;-57
2023/03/25 04:22:59;;;;;;;23.40;5.18;;;8.80;1.00;;;;;;5038328;28;20041;-56
2023/03/25 04:25:26;;;;;;;23.20;5.57;;;;;;;;;;5042927;28;20032;-54
2023/03/25 04:27:57;;;;;;;28.48;6.05;;;9.20;99.90;;;;;;5040532;28;20051;-54
2023/03/25 04:30:24;;;;;;;18.77;4.85;;;;;;;;;;5041819;28;20115;-55
2023/03/25 04:32:51;;;;;;;20.63;4.28;;;;;;;;;;5037298;28;20430;-56
2023/03/25 04:35:18;;;;;;;19.73;4.55;;;;;;;;;;5043302;28;20037;-54
2023/03/25 04:37:45;;;;;;;21.02;5.90;;;;;;;;;;5040421;28;20052;-55
2023/03/25 04:40:12;;;;;;;21.52;4.85;;;9.30;1.00;;;;;;5040539;28;20056;-56
2023/03/25 04:42:41;;;;;;;21.25;4.78;;;;;;;;;;5039944;28;20049;-58
2023/03/25 04:45:12;;;;;;;25.35;4.47;;;;;;;;;;5041596;28;20037;-55
2023/03/25 04:47:43;;;;;;;14.88;4.38;;;9.20;1.00;;;;;;5036450;28;20091;-56
2023/03/25 04:50:30;;;;;;;20.90;5.32;;;8.90;1.00;;;;;;5038902;28;20098;-56
2023/03/25 04:52:57;;;;;;;22.63;4.53;;;;;;;;;;5038312;28;20048;-54
2023/03/25 04:55:24;;;;;;;16.92;5.32;;;;;;;;;;5037447;28;20514;-53
2023/03/25 04:57:52;;;;;;;28.90;6.38;;;9.10;1.00;;;;;;5038097;28;20048;-55
2023/03/25 05:00:21;;;;;;;20.17;4.78;;;;;;;;;;5036586;28;20049;-57
2023/03/25 05:02:48;;;;;;;16.63;5.18;;;;;;;;;;5040247;28;20049;-57
2023/03/25 05:05:17;;;;;;;28.38;6.47;;;;;;;;;;5041839;28;20071;-58
2023/03/25 05:07:44;;;;;;;22.85;5.85;;;;;;;;;;5038253;28;20045;-57
2023/03/25 05:10:11;;;;;;;24.52;4.65;;;;;;;;;;5039542;28;20570;-59
2023/03/25 05:12:37;;;;;;;26.00;5.18;;;8.80;1.00;;;;;;5041020;28;20073;-58
2023/03/25 05:15:03;;;;;;;20.30;4.90;;;;;;;;;;5043403;28;20115;-56
2023/03/25 05:17:29;;;;;;;25.27;5.50;;;;;;;;;;5035789;28;20041;-56
2023/03/25 05:19:55;;;;;;;23.58;4.60;;;;;;;;;;5039900;28;20048;-52
2023/03/25 05:22:22;;;;;;;25.25;5.53;;;;;;;;;;5042104;28;20418;-56
2023/03/25 05:24:47;;;;;;;24.27;6.28;;;8.90;99.90;;;;;;5040948;28;20045;-56
2023/03/25 05:27:13;;;;;;;24.75;5.97;;;8.90;99.90;;;;;;5036043;28;20041;-58
2023/03/25 05:29:39;;;;;;;23.90;5.13;;;;;;;;;;5038721;28;20434;-56
2023/03/25 05:32:05;;;;;;;35.28;6.45;;;;;;;;;;5047760;28;20072;-57
2023/03/25 05:34:31;;;;;;;22.98;5.10;;;;;;;;;;5046354;28;20045;-56
2023/03/25 05:36:57;;;;;;;28.60;5.25;;;;;;;;;;5044116;28;20091;-59
2023/03/25 05:39:24;;;;;;;19.27;4.10;;;;;;;;;;5040865;28;20700;-55
2023/03/25 05:41:54;;;;;;;27.70;5.43;;;9.00;99.90;;;;;;5040477;28;20490;-56
2023/03/25 05:44:20;;;;;;;29.27;6.35;;;;;;;;;;5044066;28;20383;-57
2023/03/25 05:46:46;;;;;;;27.40;5.90;;;;;;;;;;5041062;28;20041;-57
2023/03/25 05:49:12;;;;;;;23.70;5.20;;;;;;;;;;5042639;28;20041;-54
2023/03/25 05:51:38;;;;;;;24.70;5.10;;;;;;;;;;5041135;28;20048;-56
2023/03/25 05:54:09;;;;;;;17.33;5.15;;;;;;;;;;5043264;28;20607;-57
2023/03/25 05:56:38;;;;;;;30.98;6.45;;;;;;;;;;5041701;28;20049;-56
2023/03/25 05:59:04;;;;;;;20.73;4.30;;;;;;;;;;5042708;28;20124;-56
2023/03/25 06:01:32;;;;;;;18.98;4.00;;;;;;;;;;5045617;28;20036;-56
2023/03/25 06:04:00;;;;;;;24.50;5.20;;;;;;;;;;5044583;28;20506;-54
2023/03/25 06:06:26;;;;;;;18.45;5.30;;;9.20;1.00;;;;;;5041842;28;20047;-56
2023/03/25 06:08:52;;;;;;;24.55;5.35;;;9.10;99.90;;;;;;5039638;28;21480;-56
2023/03/25 06:11:18;;;;;;;24.45;7.85;;;8.90;1.00;;;;;;5042744;28;20037;-58
2023/03/25 06:13:48;;;;;;;20.35;5.90;;;;;;;;;;5041529;28;20041;-57
2023/03/25 06:16:19;;;;;;;21.58;5.38;;;;;;;;;;5037529;28;20045;-57
2023/03/25 06:18:49;;;;;;;20.08;4.35;;;;;;;;;;5039438;28;20052;-55
2023/03/25 06:21:15;;;;;;;16.02;3.75;;;;;;;;;;5035515;28;20049;-55
2023/03/25 06:23:41;;;;;;;17.00;4.15;;;9.20;45.50;;;;;;5040744;28;20048;-56
2023/03/25 06:26:07;;;;;;;22.42;3.75;;;9.30;97.60;;;;;;5040821;28;20044;-57
2023/03/25 06:28:33;;;;;;;19.05;4.55;;;;;;;;;;5040467;28;20453;-56
2023/03/25 06:31:02;;;;;;;21.50;4.47;;;9.30;90.00;;;;;;5040472;28;20600;-54
2023/03/25 06:33:28;;;;;;;16.45;3.63;;;9.30;99.90;;;;;;5041022;28;20127;-54
2023/03/25 06:35:54;;;;;;;8.75;2.58;;;;;;;;;;5045559;28;20542;-56
2023/03/25 06:38:21;;;;;;;14.98;3.58;;;9.30;99.90;;;;;;5040150;28;20078;-57
2023/03/25 06:40:47;;;;;;;13.10;2.88;;;;;;;;;;5039570;28;20083;-56
2023/03/25 06:43:13;;;;;;;14.38;3.20;;;;;;;;;;5041240;28;20086;-56
2023/03/25 06:45:39;;;;;;;16.10;3.47;;;;;;;;;;5043218;28;20066;-56
2023/03/25 06:48:05;;;;;;;16.98;3.50;;;;;;;;;;5044570;28;20041;-57
2023/03/25 06:50:31;;;;;;;14.98;3.60;;;;;;;;;;5041322;28;20041;-55
2023/03/25 06:52:58;;;;;;;14.77;3.40;;;;;;;;;;5039567;28;20033;-56
2023/03/25 06:55:24;;;;;;;11.68;3.42;;;;;;;;;;5042378;28;20044;-57
2023/03/25 06:57:50;;;;;;;11.60;3.47;;;;;;;;;;5037475;28;20037;-57
2023/03/25 07:00:19;;;;;;;12.68;3.47;;;;;;;;;;5040386;28;20084;-56
2023/03/25 07:02:45;;;;;;;17.02;3.38;;;8.50;99.90;;;;;;5039505;28;20045;-58
2023/03/25 07:05:11;;;;;;;18.33;4.00;;;8.60;99.90;;;;;;5043180;28;20033;-55
2023/03/25 07:07:37;;;;;;;16.50;3.75;;;;;;;;;;5040781;28;20371;-57
2023/03/25 07:10:03;;;;;;;14.57;3.85;;;7.90;99.90;;;;;;5039519;28;20033;-57
2023/03/25 07:12:29;;;;;;;13.77;4.40;;;;;;;;;;5036186;28;20072;-57
2023/03/25 07:14:56;;;;;;;19.65;4.50;;;;;;;;;;5038001;28;20040;-56
2023/03/25 07:17:23;;;;;;;11.55;2.75;;;;;;;;;;5035873;28;20037;-57
2023/03/25 07:19:50;;;;;;;18.45;4.13;;;;;;;;;;5038203;28;20099;-57
2023/03/25 07:22:16;;;;;;;17.25;3.15;;;;;;;;;;5036662;28;20033;-57
2023/03/25 07:24:42;;;;;;;16.52;3.90;;;7.90;1.00;;;;;;5039686;28;20392;-58
2023/03/25 07:27:11;;;;;;;8.15;2.42;;;;;;;;;;5036053;28;20494;-56
2023/03/25 07:29:37;;;;;;;18.80;3.83;;;;;;;;;;5037179;28;20037;-51
2023/03/25 07:32:03;;;;;;;19.00;3.72;;;;;;;;;;5035933;28;20091;-50
2023/03/25 07:34:29;;;;;;;18.83;3.25;;;7.70;1.00;;;;;;5039807;28;20044;-51
2023/03/25 07:36:55;;;;;;;13.10;3.35;;;7.70;1.00;;;;;;5037173;28;20048;-52
2023/03/25 07:39:23;;;;;;;10.27;4.00;;;7.60;1.00;;;;;;5037538;28;20103;-55
2023/03/25 07:41:50;;;;;;;20.13;4.32;;;;;;;;;;5038776;28;20049;-55
2023/03/25 07:44:19;;;;;;;17.65;4.95;;;;;;;;;;5041757;28;20037;-52
2023/03/25 07:46:45;;;;;;;20.15;4.32;;;;;;;;;;5043895;28;20037;-56
2023/03/25 07:49:11;;;;;;;23.90;5.43;;;;;;;;;;5035604;28;20095;-52
2023/03/25 07:51:37;;;;;;;26.38;4.97;;;;;;;;;;5037971;28;20041;-55
2023/03/25 07:54:04;;;;;;;22.70;4.43;;;;;;;;;;5037172;28;20037;-53
2023/03/25 07:56:30;;;;;;;13.48;3.42;;;;;;;;;;5036177;28;20061;-54
2023/03/25 07:58:56;;;;;;;15.88;4.50;;;;;;;;;;5017670;28;20045;-54
2023/03/25 08:01:22;;;;;;;21.88;4.43;;;;;;;;;;5038610;28;20592;-56
2023/03/25 08:03:48;;;;;;;21.00;4.82;;;;;;;;;;5033613;28;20037;-54
2023/03/25 08:06:14;;;;;;;13.95;3.35;;;8.10;33.00;;;;;;5033175;28;20501;-55
2023/03/25 08:08:41;;;;;;;21.88;5.03;;;;;;;;;;5034313;28;20038;-55
2023/03/25 08:11:07;;;;;;;15.52;3.65;;;;;;;;;;5033872;28;20044;-55
2023/03/25 08:13:33;;;;;;;14.60;4.22;;;;;;;;;;5033948;28;20071;-54
2023/03/25 08:15:59;;;;;;;25.27;5.03;;;;;;;;;;5032064;28;20190;-56
2023/03/25 08:18:25;;;;;;;24.33;5.10;;;8.20;26.80;;;;;;5030049;28;20040;-57
2023/03/25 08:20:52;;;;;;;22.45;3.42;;;;;;;;;;5030232;28;20045;-56
2023/03/25 08:23:18;;;;;;;13.38;3.95;;;;;;;;;;5028553;28;20110;-54
2023/03/25 08:25:47;;;;;;;19.25;4.40;;;;;;;;;;5027316;28;20037;-56
2023/03/25 08:28:21;;;;;;;22.23;3.92;;;8.40;23.90;;;;;;5029770;28;20041;-57
2023/03/25 08:30:48;;;;;;;20.17;3.78;;;;;;;;;;5029539;28;20047;-56
2023/03/25 08:33:17;;;;;;;17.00;3.70;;;8.50;9.40;;;;;;5029142;28;20071;-55
2023/03/25 08:35:43;;;;;;;19.70;4.18;;;;;;;;;;5030266;28;20086;-56
2023/03/25 08:38:09;;;;;;;24.45;5.03;;;8.70;1.00;;;;;;5030958;28;20072;-56
2023/03/25 08:40:35;;;;;;;22.83;4.47;;;;;;;;;;5027464;28;20083;-56
2023/03/25 08:43:05;;;;;;;25.40;4.25;;;;;;;;;;5027716;28;20042;-56
2023/03/25 08:45:33;;;;;;;21.70;4.40;;;;;;;;;;5029945;28;20098;-54
2023/03/25 08:48:00;;;;;;;23.58;4.85;;;9.00;99.90;;;;;;5030810;28;20044;-56
2023/03/25 08:50:26;;;;;;;21.65;3.97;;;;;;;;;;5029927;28;20056;-56
2023/03/25 08:52:56;;;;;;;16.27;3.50;;;;;;;;;;5027638;28;20175;-53
2023/03/25 08:55:23;;;;;;;11.80;2.50;;;9.00;17.70;;;;;;5040271;28;20269;-57
2023/03/25 08:57:49;;;;;;;19.23;4.13;;;;;;;;;;5029949;28;20072;-56
2023/03/25 09:00:16;;;;;;;11.80;3.17;;;;;;;;;;5034574;28;20040;-56
2023/03/25 09:02:42;;;;;;;13.52;3.03;;;;;;;;;;5036218;28;20052;-57
2023/03/25 09:05:10;;;;;;;16.70;3.75;;;;;;;;;;5033915;28;20080;-56
2023/03/25 09:07:36;;;;;;;15.95;3.10;;;8.60;99.90;;;;;;5034129;28;20038;-58
2023/03/25 09:10:03;;;;;;;12.32;3.38;;;;;;;;;;5036945;28;20033;-56
2023/03/25 09:12:29;;;;;;;15.15;3.15;;;9.10;99.90;;;;;;5038966;28;20045;-56
2023/03/25 09:14:55;;;;;;;15.02;5.20;;;9.20;1.00;;;;;;5038508;28;20098;-55
2023/03/25 09:17:21;;;;;;;14.45;2.65;;;;;;;;;;5043526;28;20036;-56
2023/03/25 09:19:47;;;;;;;14.23;2.92;;;;;;;;;;5040749;28;20525;-57
2023/03/25 09:22:14;;;;;;;11.25;3.17;;;9.10;1.00;;;;;;5039289;28;20547;-56
2023/03/25 09:24:40;;;;;;;14.70;3.55;;;9.10;99.90;;;;;;5039398;28;20074;-56
2023/03/25 09:27:06;;;;;;;13.63;3.60;;;;;;;;;;5038106;28;20395;-51
2023/03/25 09:29:33;;;;;;;12.18;2.85;;;;;;;;;;5038812;28;20038;-55
2023/03/25 09:31:59;;;;;;;13.82;3.00;;;;;;;;;;5042476;28;20047;-56
2023/03/25 09:34:26;;;;;;;21.05;4.45;;;;;;;;;;5041027;28;21556;-56
2023/03/25 09:36:53;;;;;;;13.35;3.83;;;;;;;;;;5037366;28;20053;-56
2023/03/25 09:39:20;;;;;;;11.82;3.47;;;;;;;;;;5033275;28;20446;-56
2023/03/25 09:41:51;;;;;;;15.63;3.58;;;;;;;;;;5041806;28;20033;-53
2023/03/25 09:44:46;;;;;;;15.45;3.65;;;9.50;1.00;;;;;;5040829;28;20041;-59
2023/03/25 09:47:14;;;;;;;16.02;3.75;;;9.70;22.60;;;;;;5029246;28;20041;-59
2023/03/25 09:49:43;;;;;;;13.45;3.78;;;;;;;;;;5051194;28;20070;-58
2023/03/25 09:52:19;;;;;;;11.10;3.80;;;9.30;99.90;;;;;;5051242;28;20033;-58
2023/03/25 09:54:49;;;;;;;23.27;4.78;;;;;;;;;;5046262;28;20501;-58
2023/03/25 09:57:21;;;;;;;21.85;4.03;;;10.20;99.90;;;;;;5043626;28;20116;-55
2023/03/25 09:59:48;;;;;;;16.17;3.88;;;;;;;;;;5052338;28;20417;-58
2023/03/25 10:02:21;;;;;;;18.85;3.47;;;;;;;;;;5043186;28;20498;-58
2023/03/25 10:05:02;;;;;;;13.70;3.95;;;;;;;;;;5050508;28;20045;-57
2023/03/25 10:07:34;;;;;;;32.30;5.53;;;;;;;;;;5051402;28;20554;-57
2023/03/25 10:10:07;;;;;;;20.67;4.45;;;10.60;72.60;;;;;;5051735;28;20048;-56
2023/03/25 10:12:33;;;;;;;10.15;3.05;;;;;;;;;;5049744;28;20060;-58
2023/03/25 10:15:13;;;;;;;19.63;3.90;;;10.10;99.90;;;;;;5048532;28;20045;-55
2023/03/25 10:17:58;;;;;;;12.05;2.67;;;;;;;;;;5052013;28;20568;-57
2023/03/25 10:20:43;;;;;;;16.58;3.85;;;;;;;;;;5038636;28;20381;-56
2023/03/25 10:23:30;;;;;;;18.40;3.70;;;10.50;1.00;;;;;;5051474;28;20055;-57
2023/03/25 10:26:01;;;;;;;15.60;3.17;;;;;;;;;;5040684;28;20090;-56
2023/03/25 10:28:32;;;;;;;13.68;3.38;;;10.60;99.90;;;;;;5051032;28;20048;-58
2023/03/25 10:30:59;;;;;;;9.77;2.85;;;10.80;99.90;;;;;;5050244;28;20048;-57
2023/03/25 10:33:26;;;;;;;12.88;3.13;;;;;;;;;;5050311;28;20490;-53
2023/03/25 10:35:53;;;;;;;14.35;3.70;;;;;;;;;;5051528;28;20048;-54
2023/03/25 10:38:23;;;;;;;10.63;3.38;;;11.00;99.90;;;;;;5051215;28;20087;-55
2023/03/25 10:40:55;;;;;;;14.05;3.83;;;;;;;;;;5049275;28;20048;-55
2023/03/25 10:43:32;;;;;;;17.45;3.70;;;10.80;99.90;;;;;;5048541;28;20090;-54
2023/03/25 10:46:18;;;;;;;10.65;3.05;;;;;;;;;;5046582;28;20098;-57
2023/03/25 10:48:45;;;;;;;14.98;3.90;;;11.10;99.90;;;;;;5041215;28;20091;-57
2023/03/25 10:51:13;;;;;;;12.60;3.22;;;;;;;;;;5046692;28;20033;-56
2023/03/25 10:53:41;;;;;;;11.27;3.65;;;10.80;99.90;;;;;;5034688;28;20032;-55
2023/03/25 10:56:09;;;;;;;8.95;2.40;;;;;;;;;;5047647;28;20045;-55
2023/03/25 10:58:37;;;;;;;16.88;3.58;;;;;;;;;;5033516;28;20038;-58
2023/03/25 11:01:14;;;;;;;10.73;3.15;;;10.80;99.90;;;;;;5043224;28;20033;-56
2023/03/25 11:03:41;;;;;;;12.23;4.05;;;;;;;;;;5046161;28;20099;-55
2023/03/25 11:06:25;;;;;;;10.75;3.63;;;11.30;99.90;;;;;;5042449;28;20513;-57
2023/03/25 11:09:06;;;;;;;15.82;3.22;;;;;;;;;;5045378;28;20306;-55
2023/03/25 11:11:33;;;;;;;22.63;4.63;;;;;;;;;;5047502;28;20116;-54
2023/03/25 11:13:59;;;;;;;15.43;4.93;;;;;;;;;;5042140;28;20359;-56
2023/03/25 11:16:25;;;;;;;12.73;4.53;;;;;;;;;;5037035;28;20044;-56
2023/03/25 11:18:52;;;;;;;11.32;2.75;;;11.70;94.20;;;;;;5043146;28;20045;-53
2023/03/25 11:21:19;;;;;;;14.32;2.92;;;11.30;99.90;;;;;;5044225;28;20039;-56
2023/03/25 11:23:47;;;;;;;20.80;4.93;;;;;;;;;;5044409;28;20037;-52
2023/03/25 11:26:18;;;;;;;17.88;3.85;;;;;;;;;;5039631;28;20065;-55
2023/03/25 11:28:49;;;;;;;14.45;4.00;;;11.40;57.80;;;;;;5041521;28;20040;-56
2023/03/25 11:31:17;;;;;;;16.23;4.63;;;;;;;;;;5037187;28;20066;-57
2023/03/25 11:33:45;;;;;;;19.40;4.13;;;;;;;;;;5053346;28;20439;-55
2023/03/25 11:36:13;;;;;;;14.70;3.40;;;;;;;;;;5039573;28;20037;-58
2023/03/25 11:38:39;;;;;;;12.02;3.05;;;;;;;;;;5049055;28;20041;-55
2023/03/25 11:41:06;;;;;;;10.02;3.03;;;;;;;;;;5041411;28;20095;-58
2023/03/25 11:43:36;;;;;;;17.23;4.38;;;;;;;;;;5047785;28;20071;-56
2023/03/25 11:46:20;;;;;;;12.50;3.00;;;;;;;;;;5046251;28;20033;-57
2023/03/25 11:48:49;;;;;;;16.02;3.17;;;;;;;;;;5045122;28;20151;-58
2023/03/25 11:51:27;;;;;;;13.32;4.03;;;;;;;;;;5039334;28;20041;-56
2023/03/25 11:53:58;;;;;;;18.67;3.65;;;;;;;;;;5041089;28;20506;-57
2023/03/25 11:56:28;;;;;;;14.80;3.20;;;;;;;;;;5042983;28;20446;-54
2023/03/25 11:58:57;;;;;;;10.75;2.90;;;;;;;;;;5048975;28;20155;-56
2023/03/25 12:01:40;;;;;;;15.38;3.50;;;11.30;1.00;;;;;;5044807;28;20549;-57
2023/03/25 12:04:26;;;;;;;10.73;3.00;;;11.00;1.00;;;;;;5038930;28;20045;-56
2023/03/25 12:07:07;;;;;;;8.73;3.20;;;;;;;;;;5046610;28;20061;-56
2023/03/25 12:09:33;;;;;;;14.07;3.67;;;11.10;1.00;;;;;;5042099;28;20490;-58
2023/03/25 12:12:08;;;;;;;8.68;2.92;;;11.00;1.00;;;;;;5043340;28;20040;-57
2023/03/25 12:14:51;;;;;;;10.95;2.97;;;;;;;;;;5042686;28;20083;-58
2023/03/25 12:17:17;;;;;;;14.43;3.25;;;;;;;;;;5033021;28;20041;-55
2023/03/25 12:19:47;;;;;;;10.52;3.00;;;;;;;;;;5037662;28;20098;-53
2023/03/25 12:22:13;;;;;;;12.20;3.15;;;;;;;;;;5041781;28;20045;-53
2023/03/25 12:24:48;;;;;;;17.77;3.15;;;;;;;;;;5028953;28;20388;-58
2023/03/25 12:27:20;;;;;;;13.85;2.88;;;;;;;;;;5037775;28;20083;-59
2023/03/25 12:29:51;;;;;;;14.23;4.63;;;;;;;;;;5047634;28;20041;-56
2023/03/25 12:32:40;;;;;;;9.50;2.60;;;;;;;;;;5045584;28;20071;-57
2023/03/25 12:35:28;;;;;;;15.73;3.20;;;10.40;99.90;;;;;;5034567;28;20274;-52
2023/03/25 12:38:06;;;;;;;15.32;3.88;;;;;;;;;;5049307;28;20106;-53
2023/03/25 12:40:48;;;;;;;16.15;4.00;;;;;;;;;;5023188;28;20048;-56
2023/03/25 12:43:36;;;;;;;15.40;3.70;;;;;;;;;;5046968;28;20083;-57
2023/03/25 12:46:19;;;;;;;17.50;3.42;;;9.20;99.90;;;;;;5034002;28;20053;-53
2023/03/25 12:49:05;;;;;;;15.80;3.65;;;;;;;;;;5037217;28;20091;-56
2023/03/25 12:51:53;;;;;;;15.57;4.47;;;8.30;99.90;;;;;;5040209;28;20051;-56
2023/03/25 12:54:30;;;;;;;14.25;4.40;;;;;;;;;;5044756;28;20493;-56
2023/03/25 12:57:20;;;;;;;19.17;3.90;;;;;;;;;;5048020;28;20044;-58
2023/03/25 12:59:55;;;;;;;20.55;4.28;;;;;;;;;;5040638;28;20064;-58
2023/03/25 13:02:40;;;;;;;13.13;3.42;;;;;;;;;;5046520;28;20033;-54
2023/03/25 13:05:06;;;;;;;;;;;;;;;;;;5049653;28;20115;-56
2023/03/25 13:07:37;;;;;;;16.67;3.25;;;;;;;;;;5036820;28;20617;-51
2023/03/25 13:10:27;;;;;;;10.90;3.70;;;8.40;1.00;;;;;;5040151;28;20102;-55
2023/03/25 13:12:55;;;;;;;20.20;4.03;;;;;;;;;;5036794;28;20037;-53
2023/03/25 13:15:24;;;;;;;9.35;2.92;;;;;;;;;;5041644;28;20049;-50
2023/03/25 13:17:56;;;;;;;16.02;3.03;;;;;;;;;;5045151;28;20041;-53
2023/03/25 13:20:23;;;;;;;14.57;3.50;;;;;;;;;;5046191;28;20056;-56
2023/03/25 13:22:56;;;;;;;10.35;3.35;;;8.60;1.00;;;;;;5031155;28;20040;-56
2023/03/25 13:25:28;;;;;;;13.63;2.50;;;;;;;;;;5041624;28;20048;-56
2023/03/25 13:27:56;;;;;;;10.32;3.35;;;8.50;99.90;;;;;;5046481;28;20045;-57
2023/03/25 13:30:45;;;;;;;14.60;3.03;;;8.50;1.00;;;;;;5031524;28;20030;-56
2023/03/25 13:33:15;;;;;;;11.35;4.18;;;;;;;;;;5026773;28;20041;-55
2023/03/25 13:36:08;;;;;;;7.75;2.58;;;7.80;99.90;;;;;;5024743;28;20124;-56
2023/03/25 13:38:54;;;;;;;6.32;2.35;;;;;;;;;;5031250;28;20049;-55
2023/03/25 13:41:25;;;;;;;11.70;2.90;;;8.30;99.90;;;;;;5041719;28;20048;-53
2023/03/25 13:43:57;;;;;;;10.45;2.88;;;7.80;99.90;;;;;;5041656;28;20037;-55
2023/03/25 13:46:43;;;;;;;8.30;2.85;;;;;;;;;;5046519;28;20127;-56
2023/03/25 13:49:23;;;;;;;11.88;3.30;;;;;;;;;;5047869;28;20094;-56
2023/03/25 13:51:49;;;;;;;12.00;3.38;;;;;;;;;;5046546;28;20033;-55
2023/03/25 13:54:51;;;;;;;23.25;5.85;;;;;;;;;;5052540;28;20033;-56
2023/03/25 13:57:35;;;;;;;13.55;3.35;;;;;;;;;;4988924;28;20543;-57
2023/03/25 14:00:17;;;;;;;14.75;3.90;;;9.50;99.90;;;;;;5050242;28;20250;-57
2023/03/25 14:03:02;;;;;;;9.30;2.85;;;;;;;;;;5040363;28;20749;-57
2023/03/25 14:05:51;;;;;;;17.40;4.13;;;8.60;99.90;;;;;;5048244;28;20471;-57
2023/03/25 14:08:17;;;;;;;17.17;3.55;;;;;;;;;;5045000;28;20037;-57
2023/03/25 14:10:46;;;;;;;11.18;3.45;;;;;;;;;;5043540;28;20055;-59
2023/03/25 14:13:17;;;;;;;14.90;5.03;;;;;;;;;;5047726;28;20095;-58
2023/03/25 14:16:00;;;;;;;14.18;3.80;;;8.90;99.90;;;;;;5048489;28;20490;-56